sensor_id;sensor_type;location;lat;lon;timestamp;P1;durP1;ratioP1;P2;durP2;ratioP2
59512;SDS011;45330;51.634;5.562;2022-10-31T00:00:00;25.45;;;14.48;;
59512;SDS011;45330;51.634;5.562;2022-10-31T00:02:26;28.45;;;15.00;;
59512;SDS011;45330;51.634;5.562;2022-10-31T00:04:51;27.25;;;14.10;;
59512;SDS011;45330;51.634;5.562;2022-10-31T00:07:17;29.30;;;14.48;;
59512;SDS011;45330;51.634;5.562;2022-10-31T00:09:42;25.63;;;14.60;;
59512;SDS011;45330;51.634;5.562;2022-10-31T00:12:07;27.10;;;14.27;;
59512;SDS011;45330;51.634;5.562;2022-10-31T00:14:32;27.83;;;14.38;;
59512;SDS011;45330;51.634;5.562;2022-10-31T00:16:58;27.80;;;14.70;;
59512;SDS011;45330;51.634;5.562;2022-10-31T00:19:23;28.25;;;14.32;;
59512;SDS011;45330;51.634;5.562;2022-10-31T00:21:51;26.55;;;14.00;;
59512;SDS011;45330;51.634;5.562;2022-10-31T00:24:16;27.92;;;14.43;;
59512;SDS011;45330;51.634;5.562;2022-10-31T00:26:42;29.33;;;15.20;;
59512;SDS011;45330;51.634;5.562;2022-10-31T00:29:07;28.23;;;14.45;;
59512;SDS011;45330;51.634;5.562;2022-10-31T00:31:33;31.85;;;14.98;;
59512;SDS011;45330;51.634;5.562;2022-10-31T00:33:58;27.67;;;14.20;;
59512;SDS011;45330;51.634;5.562;2022-10-31T00:36:23;28.35;;;15.45;;
59512;SDS011;45330;51.634;5.562;2022-10-31T00:38:49;27.25;;;14.77;;
59512;SDS011;45330;51.634;5.562;2022-10-31T00:41:15;26.70;;;14.40;;
59512;SDS011;45330;51.634;5.562;2022-10-31T00:43:42;27.10;;;14.98;;
59512;SDS011;45330;51.634;5.562;2022-10-31T00:46:08;28.08;;;16.20;;
59512;SDS011;45330;51.634;5.562;2022-10-31T00:48:34;28.67;;;14.80;;
59512;SDS011;45330;51.634;5.562;2022-10-31T00:51:00;25.85;;;15.05;;
59512;SDS011;45330;51.634;5.562;2022-10-31T00:53:25;27.98;;;14.55;;
59512;SDS011;45330;51.634;5.562;2022-10-31T00:55:50;27.58;;;15.60;;
59512;SDS011;45330;51.634;5.562;2022-10-31T00:58:16;26.90;;;14.73;;
59512;SDS011;45330;51.634;5.562;2022-10-31T01:00:41;26.80;;;15.15;;
59512;SDS011;45330;51.634;5.562;2022-10-31T01:03:06;28.42;;;14.73;;
59512;SDS011;45330;51.634;5.562;2022-10-31T01:05:33;26.10;;;14.30;;
59512;SDS011;45330;51.634;5.562;2022-10-31T01:07:58;27.98;;;14.93;;
59512;SDS011;45330;51.634;5.562;2022-10-31T01:10:24;28.77;;;14.10;;
59512;SDS011;45330;51.634;5.562;2022-10-31T01:12:49;26.48;;;13.95;;
59512;SDS011;45330;51.634;5.562;2022-10-31T01:15:16;25.65;;;14.95;;
59512;SDS011;45330;51.634;5.562;2022-10-31T01:17:45;30.73;;;14.90;;
59512;SDS011;45330;51.634;5.562;2022-10-31T01:20:11;25.40;;;13.63;;
59512;SDS011;45330;51.634;5.562;2022-10-31T01:22:37;28.60;;;14.30;;
59512;SDS011;45330;51.634;5.562;2022-10-31T01:25:03;27.92;;;15.52;;
59512;SDS011;45330;51.634;5.562;2022-10-31T01:27:29;29.02;;;14.80;;
59512;SDS011;45330;51.634;5.562;2022-10-31T01:29:56;27.58;;;13.85;;
59512;SDS011;45330;51.634;5.562;2022-10-31T01:32:21;26.55;;;14.82;;
59512;SDS011;45330;51.634;5.562;2022-10-31T01:34:46;28.42;;;15.07;;
59512;SDS011;45330;51.634;5.562;2022-10-31T01:37:12;28.17;;;15.00;;
59512;SDS011;45330;51.634;5.562;2022-10-31T01:39:37;26.75;;;15.05;;
59512;SDS011;45330;51.634;5.562;2022-10-31T01:42:02;27.25;;;16.00;;
59512;SDS011;45330;51.634;5.562;2022-10-31T01:46:54;27.15;;;14.82;;
59512;SDS011;45330;51.634;5.562;2022-10-31T01:49:31;27.23;;;15.17;;
59512;SDS011;45330;51.634;5.562;2022-10-31T01:52:15;28.63;;;15.63;;
59512;SDS011;45330;51.634;5.562;2022-10-31T01:54:48;26.42;;;15.07;;
59512;SDS011;45330;51.634;5.562;2022-10-31T01:57:25;28.40;;;15.93;;
59512;SDS011;45330;51.634;5.562;2022-10-31T01:59:54;29.75;;;15.60;;
59512;SDS011;45330;51.634;5.562;2022-10-31T02:02:23;28.13;;;15.02;;
59512;SDS011;45330;51.634;5.562;2022-10-31T02:04:51;28.88;;;15.15;;
59512;SDS011;45330;51.634;5.562;2022-10-31T02:07:19;29.25;;;15.60;;
59512;SDS011;45330;51.634;5.562;2022-10-31T02:09:50;27.38;;;15.45;;
59512;SDS011;45330;51.634;5.562;2022-10-31T02:12:17;28.38;;;15.15;;
59512;SDS011;45330;51.634;5.562;2022-10-31T02:14:44;27.60;;;14.88;;
59512;SDS011;45330;51.634;5.562;2022-10-31T02:17:09;28.65;;;14.45;;
59512;SDS011;45330;51.634;5.562;2022-10-31T02:22:12;29.27;;;15.07;;
59512;SDS011;45330;51.634;5.562;2022-10-31T02:24:52;26.15;;;14.27;;
59512;SDS011;45330;51.634;5.562;2022-10-31T02:30:36;28.50;;;14.55;;
59512;SDS011;45330;51.634;5.562;2022-10-31T02:33:25;29.90;;;15.55;;
59512;SDS011;45330;51.634;5.562;2022-10-31T02:49:08;23.38;;;13.15;;
59512;SDS011;45330;51.634;5.562;2022-10-31T02:51:41;27.25;;;14.45;;
59512;SDS011;45330;51.634;5.562;2022-10-31T02:54:18;25.85;;;13.98;;
59512;SDS011;45330;51.634;5.562;2022-10-31T02:56:46;26.23;;;14.43;;
59512;SDS011;45330;51.634;5.562;2022-10-31T02:59:13;29.80;;;15.73;;
59512;SDS011;45330;51.634;5.562;2022-10-31T03:01:53;30.60;;;15.98;;
59512;SDS011;45330;51.634;5.562;2022-10-31T03:12:46;31.75;;;17.15;;
59512;SDS011;45330;51.634;5.562;2022-10-31T03:17:42;29.52;;;17.58;;
59512;SDS011;45330;51.634;5.562;2022-10-31T03:20:24;30.65;;;17.33;;
59512;SDS011;45330;51.634;5.562;2022-10-31T03:22:55;30.63;;;16.38;;
59512;SDS011;45330;51.634;5.562;2022-10-31T03:25:22;29.45;;;16.45;;
59512;SDS011;45330;51.634;5.562;2022-10-31T03:27:48;28.90;;;16.00;;
59512;SDS011;45330;51.634;5.562;2022-10-31T03:30:16;28.10;;;16.58;;
59512;SDS011;45330;51.634;5.562;2022-10-31T03:32:49;29.30;;;17.13;;
59512;SDS011;45330;51.634;5.562;2022-10-31T03:35:17;32.63;;;18.20;;
59512;SDS011;45330;51.634;5.562;2022-10-31T03:37:46;29.88;;;17.77;;
59512;SDS011;45330;51.634;5.562;2022-10-31T03:40:13;32.03;;;17.98;;
59512;SDS011;45330;51.634;5.562;2022-10-31T03:42:41;31.73;;;17.02;;
59512;SDS011;45330;51.634;5.562;2022-10-31T03:45:12;33.08;;;17.75;;
59512;SDS011;45330;51.634;5.562;2022-10-31T03:47:41;31.67;;;17.88;;
59512;SDS011;45330;51.634;5.562;2022-10-31T03:50:09;32.58;;;17.88;;
59512;SDS011;45330;51.634;5.562;2022-10-31T03:52:41;32.75;;;18.13;;
59512;SDS011;45330;51.634;5.562;2022-10-31T03:55:09;35.25;;;17.60;;
59512;SDS011;45330;51.634;5.562;2022-10-31T04:00:21;31.02;;;16.90;;
59512;SDS011;45330;51.634;5.562;2022-10-31T04:02:51;31.02;;;16.65;;
59512;SDS011;45330;51.634;5.562;2022-10-31T04:05:23;32.63;;;16.48;;
59512;SDS011;45330;51.634;5.562;2022-10-31T04:07:50;28.50;;;15.60;;
59512;SDS011;45330;51.634;5.562;2022-10-31T04:10:19;30.47;;;16.20;;
59512;SDS011;45330;51.634;5.562;2022-10-31T04:12:48;29.98;;;16.52;;
59512;SDS011;45330;51.634;5.562;2022-10-31T04:15:18;28.88;;;16.33;;
59512;SDS011;45330;51.634;5.562;2022-10-31T04:17:44;28.80;;;15.68;;
59512;SDS011;45330;51.634;5.562;2022-10-31T04:20:15;28.65;;;15.43;;
59512;SDS011;45330;51.634;5.562;2022-10-31T04:22:41;30.50;;;15.77;;
59512;SDS011;45330;51.634;5.562;2022-10-31T04:25:07;30.45;;;15.88;;
59512;SDS011;45330;51.634;5.562;2022-10-31T04:27:33;30.20;;;15.43;;
59512;SDS011;45330;51.634;5.562;2022-10-31T04:29:58;27.73;;;15.20;;
59512;SDS011;45330;51.634;5.562;2022-10-31T04:32:24;27.55;;;15.50;;
59512;SDS011;45330;51.634;5.562;2022-10-31T04:34:50;27.13;;;14.90;;
59512;SDS011;45330;51.634;5.562;2022-10-31T04:37:15;28.08;;;14.45;;
59512;SDS011;45330;51.634;5.562;2022-10-31T04:39:40;26.45;;;14.23;;
59512;SDS011;45330;51.634;5.562;2022-10-31T04:42:06;25.42;;;14.18;;
59512;SDS011;45330;51.634;5.562;2022-10-31T04:44:31;31.70;;;15.43;;
59512;SDS011;45330;51.634;5.562;2022-10-31T04:46:56;29.65;;;15.80;;
59512;SDS011;45330;51.634;5.562;2022-10-31T04:49:22;30.23;;;16.25;;
59512;SDS011;45330;51.634;5.562;2022-10-31T04:51:47;32.80;;;16.58;;
59512;SDS011;45330;51.634;5.562;2022-10-31T04:54:12;27.95;;;16.08;;
59512;SDS011;45330;51.634;5.562;2022-10-31T04:56:38;31.30;;;17.45;;
59512;SDS011;45330;51.634;5.562;2022-10-31T04:59:03;28.27;;;16.33;;
59512;SDS011;45330;51.634;5.562;2022-10-31T05:01:28;29.80;;;16.73;;
59512;SDS011;45330;51.634;5.562;2022-10-31T05:03:54;30.27;;;15.88;;
59512;SDS011;45330;51.634;5.562;2022-10-31T05:06:19;29.67;;;15.52;;
59512;SDS011;45330;51.634;5.562;2022-10-31T05:08:44;28.77;;;16.00;;
59512;SDS011;45330;51.634;5.562;2022-10-31T05:11:10;26.90;;;15.52;;
59512;SDS011;45330;51.634;5.562;2022-10-31T05:13:36;27.67;;;15.32;;
59512;SDS011;45330;51.634;5.562;2022-10-31T05:16:01;28.25;;;15.32;;
59512;SDS011;45330;51.634;5.562;2022-10-31T05:18:26;28.85;;;15.60;;
59512;SDS011;45330;51.634;5.562;2022-10-31T05:20:52;29.63;;;15.25;;
59512;SDS011;45330;51.634;5.562;2022-10-31T05:23:17;27.67;;;14.50;;
59512;SDS011;45330;51.634;5.562;2022-10-31T05:25:42;28.92;;;15.60;;
59512;SDS011;45330;51.634;5.562;2022-10-31T05:28:08;29.25;;;16.08;;
59512;SDS011;45330;51.634;5.562;2022-10-31T05:30:34;33.47;;;17.45;;
59512;SDS011;45330;51.634;5.562;2022-10-31T05:33:00;32.85;;;17.70;;
59512;SDS011;45330;51.634;5.562;2022-10-31T05:35:29;31.10;;;16.65;;
59512;SDS011;45330;51.634;5.562;2022-10-31T05:37:57;33.75;;;17.92;;
59512;SDS011;45330;51.634;5.562;2022-10-31T05:40:24;33.40;;;18.98;;
59512;SDS011;45330;51.634;5.562;2022-10-31T05:42:51;32.65;;;18.60;;
59512;SDS011;45330;51.634;5.562;2022-10-31T05:45:18;33.55;;;19.10;;
59512;SDS011;45330;51.634;5.562;2022-10-31T05:47:59;34.65;;;19.33;;
59512;SDS011;45330;51.634;5.562;2022-10-31T05:50:27;39.50;;;20.80;;
59512;SDS011;45330;51.634;5.562;2022-10-31T05:52:58;35.75;;;20.40;;
59512;SDS011;45330;51.634;5.562;2022-10-31T05:55:28;40.65;;;22.60;;
59512;SDS011;45330;51.634;5.562;2022-10-31T05:57:54;39.08;;;22.20;;
59512;SDS011;45330;51.634;5.562;2022-10-31T06:00:20;45.80;;;23.73;;
59512;SDS011;45330;51.634;5.562;2022-10-31T06:02:46;40.25;;;23.25;;
59512;SDS011;45330;51.634;5.562;2022-10-31T06:05:12;43.67;;;24.73;;
59512;SDS011;45330;51.634;5.562;2022-10-31T06:07:38;40.67;;;23.38;;
59512;SDS011;45330;51.634;5.562;2022-10-31T06:10:04;41.63;;;23.50;;
59512;SDS011;45330;51.634;5.562;2022-10-31T06:12:31;41.15;;;22.38;;
59512;SDS011;45330;51.634;5.562;2022-10-31T06:15:02;43.22;;;23.55;;
59512;SDS011;45330;51.634;5.562;2022-10-31T06:17:31;41.70;;;23.33;;
59512;SDS011;45330;51.634;5.562;2022-10-31T06:19:58;43.80;;;23.58;;
59512;SDS011;45330;51.634;5.562;2022-10-31T06:22:23;40.08;;;23.60;;
59512;SDS011;45330;51.634;5.562;2022-10-31T06:24:49;42.67;;;22.75;;
59512;SDS011;45330;51.634;5.562;2022-10-31T06:27:14;39.33;;;21.02;;
59512;SDS011;45330;51.634;5.562;2022-10-31T06:29:39;37.28;;;20.42;;
59512;SDS011;45330;51.634;5.562;2022-10-31T06:32:05;37.15;;;20.40;;
59512;SDS011;45330;51.634;5.562;2022-10-31T06:34:30;35.47;;;19.63;;
59512;SDS011;45330;51.634;5.562;2022-10-31T06:36:55;35.30;;;19.85;;
59512;SDS011;45330;51.634;5.562;2022-10-31T06:39:21;34.40;;;20.15;;
59512;SDS011;45330;51.634;5.562;2022-10-31T06:41:49;39.22;;;21.30;;
59512;SDS011;45330;51.634;5.562;2022-10-31T06:44:14;37.28;;;19.42;;
59512;SDS011;45330;51.634;5.562;2022-10-31T06:46:40;37.08;;;20.63;;
59512;SDS011;45330;51.634;5.562;2022-10-31T06:49:05;37.85;;;21.38;;
59512;SDS011;45330;51.634;5.562;2022-10-31T06:51:30;41.30;;;21.85;;
59512;SDS011;45330;51.634;5.562;2022-10-31T06:53:56;42.47;;;22.15;;
59512;SDS011;45330;51.634;5.562;2022-10-31T06:56:21;40.10;;;21.30;;
59512;SDS011;45330;51.634;5.562;2022-10-31T06:58:46;38.67;;;21.38;;
59512;SDS011;45330;51.634;5.562;2022-10-31T07:01:12;39.28;;;21.73;;
59512;SDS011;45330;51.634;5.562;2022-10-31T07:03:37;43.35;;;23.33;;
59512;SDS011;45330;51.634;5.562;2022-10-31T07:06:02;49.45;;;23.67;;
59512;SDS011;45330;51.634;5.562;2022-10-31T07:08:28;52.03;;;23.65;;
59512;SDS011;45330;51.634;5.562;2022-10-31T07:10:54;61.83;;;25.65;;
59512;SDS011;45330;51.634;5.562;2022-10-31T07:13:21;58.08;;;24.55;;
59512;SDS011;45330;51.634;5.562;2022-10-31T07:15:53;73.57;;;24.85;;
59512;SDS011;45330;51.634;5.562;2022-10-31T07:18:20;56.45;;;24.80;;
59512;SDS011;45330;51.634;5.562;2022-10-31T07:20:46;50.38;;;24.20;;
59512;SDS011;45330;51.634;5.562;2022-10-31T07:23:12;45.72;;;22.80;;
59512;SDS011;45330;51.634;5.562;2022-10-31T07:25:38;53.22;;;24.50;;
59512;SDS011;45330;51.634;5.562;2022-10-31T07:28:04;48.58;;;24.95;;
59512;SDS011;45330;51.634;5.562;2022-10-31T07:30:30;47.30;;;24.48;;
59512;SDS011;45330;51.634;5.562;2022-10-31T07:32:56;41.90;;;25.25;;
59512;SDS011;45330;51.634;5.562;2022-10-31T07:35:22;38.53;;;24.17;;
59512;SDS011;45330;51.634;5.562;2022-10-31T07:37:48;39.13;;;24.10;;
59512;SDS011;45330;51.634;5.562;2022-10-31T07:40:14;38.28;;;24.58;;
59512;SDS011;45330;51.634;5.562;2022-10-31T07:42:43;38.42;;;24.58;;
59512;SDS011;45330;51.634;5.562;2022-10-31T07:45:11;40.17;;;24.85;;
59512;SDS011;45330;51.634;5.562;2022-10-31T07:47:56;41.03;;;25.13;;
59512;SDS011;45330;51.634;5.562;2022-10-31T07:50:23;40.10;;;25.27;;
59512;SDS011;45330;51.634;5.562;2022-10-31T07:53:00;44.35;;;25.33;;
59512;SDS011;45330;51.634;5.562;2022-10-31T07:55:26;42.08;;;26.50;;
59512;SDS011;45330;51.634;5.562;2022-10-31T07:57:59;41.63;;;25.73;;
59512;SDS011;45330;51.634;5.562;2022-10-31T08:00:29;41.67;;;26.23;;
59512;SDS011;45330;51.634;5.562;2022-10-31T08:02:59;45.38;;;28.17;;
59512;SDS011;45330;51.634;5.562;2022-10-31T08:05:26;44.67;;;28.45;;
59512;SDS011;45330;51.634;5.562;2022-10-31T08:07:51;45.40;;;29.60;;
59512;SDS011;45330;51.634;5.562;2022-10-31T08:10:17;46.83;;;30.67;;
59512;SDS011;45330;51.634;5.562;2022-10-31T08:12:42;47.28;;;32.00;;
59512;SDS011;45330;51.634;5.562;2022-10-31T08:15:08;52.25;;;34.45;;
59512;SDS011;45330;51.634;5.562;2022-10-31T08:17:36;51.22;;;35.75;;
59512;SDS011;45330;51.634;5.562;2022-10-31T08:20:03;53.92;;;37.05;;
59512;SDS011;45330;51.634;5.562;2022-10-31T08:22:29;57.90;;;39.85;;
59512;SDS011;45330;51.634;5.562;2022-10-31T08:24:54;64.82;;;42.53;;
59512;SDS011;45330;51.634;5.562;2022-10-31T08:27:20;66.90;;;43.45;;
59512;SDS011;45330;51.634;5.562;2022-10-31T08:29:45;67.65;;;43.85;;
59512;SDS011;45330;51.634;5.562;2022-10-31T08:32:10;67.75;;;45.67;;
59512;SDS011;45330;51.634;5.562;2022-10-31T08:34:36;75.78;;;47.38;;
59512;SDS011;45330;51.634;5.562;2022-10-31T08:37:01;79.38;;;48.47;;
59512;SDS011;45330;51.634;5.562;2022-10-31T08:39:26;79.72;;;48.40;;
59512;SDS011;45330;51.634;5.562;2022-10-31T08:41:52;80.40;;;50.80;;
59512;SDS011;45330;51.634;5.562;2022-10-31T08:44:17;77.07;;;47.88;;
59512;SDS011;45330;51.634;5.562;2022-10-31T08:46:42;72.75;;;45.45;;
59512;SDS011;45330;51.634;5.562;2022-10-31T08:49:08;70.47;;;46.03;;
59512;SDS011;45330;51.634;5.562;2022-10-31T08:51:33;65.25;;;43.72;;
59512;SDS011;45330;51.634;5.562;2022-10-31T08:53:58;60.10;;;39.05;;
59512;SDS011;45330;51.634;5.562;2022-10-31T08:56:24;56.60;;;36.70;;
59512;SDS011;45330;51.634;5.562;2022-10-31T08:58:49;47.30;;;31.77;;
59512;SDS011;45330;51.634;5.562;2022-10-31T09:01:16;41.20;;;26.58;;
59512;SDS011;45330;51.634;5.562;2022-10-31T09:03:41;43.13;;;26.60;;
59512;SDS011;45330;51.634;5.562;2022-10-31T09:06:07;41.30;;;26.98;;
59512;SDS011;45330;51.634;5.562;2022-10-31T09:08:34;39.78;;;25.17;;
59512;SDS011;45330;51.634;5.562;2022-10-31T09:11:00;38.25;;;25.73;;
59512;SDS011;45330;51.634;5.562;2022-10-31T09:13:25;37.30;;;25.52;;
59512;SDS011;45330;51.634;5.562;2022-10-31T09:15:51;38.70;;;25.40;;
59512;SDS011;45330;51.634;5.562;2022-10-31T09:18:18;42.40;;;27.15;;
59512;SDS011;45330;51.634;5.562;2022-10-31T09:20:45;39.67;;;25.40;;
59512;SDS011;45330;51.634;5.562;2022-10-31T09:23:13;38.95;;;25.15;;
59512;SDS011;45330;51.634;5.562;2022-10-31T09:25:42;36.05;;;24.20;;
59512;SDS011;45330;51.634;5.562;2022-10-31T09:28:09;39.45;;;24.98;;
59512;SDS011;45330;51.634;5.562;2022-10-31T09:30:36;43.47;;;25.92;;
59512;SDS011;45330;51.634;5.562;2022-10-31T09:33:02;40.80;;;26.05;;
59512;SDS011;45330;51.634;5.562;2022-10-31T09:35:29;39.42;;;25.02;;
59512;SDS011;45330;51.634;5.562;2022-10-31T09:37:55;42.55;;;24.83;;
59512;SDS011;45330;51.634;5.562;2022-10-31T09:40:23;39.30;;;25.00;;
59512;SDS011;45330;51.634;5.562;2022-10-31T09:48:13;40.17;;;26.67;;
59512;SDS011;45330;51.634;5.562;2022-10-31T09:50:54;40.63;;;26.48;;
59512;SDS011;45330;51.634;5.562;2022-10-31T09:56:05;38.95;;;26.25;;
59512;SDS011;45330;51.634;5.562;2022-10-31T09:58:34;37.78;;;25.50;;
59512;SDS011;45330;51.634;5.562;2022-10-31T10:01:09;40.72;;;27.08;;
59512;SDS011;45330;51.634;5.562;2022-10-31T10:03:45;40.40;;;26.63;;
59512;SDS011;45330;51.634;5.562;2022-10-31T10:06:18;41.97;;;26.15;;
59512;SDS011;45330;51.634;5.562;2022-10-31T10:08:45;40.97;;;26.90;;
59512;SDS011;45330;51.634;5.562;2022-10-31T10:13:53;42.22;;;27.98;;
59512;SDS011;45330;51.634;5.562;2022-10-31T10:18:59;40.70;;;27.77;;
59512;SDS011;45330;51.634;5.562;2022-10-31T10:21:59;42.15;;;28.50;;
59512;SDS011;45330;51.634;5.562;2022-10-31T10:30:21;43.60;;;28.00;;
59512;SDS011;45330;51.634;5.562;2022-10-31T10:32:52;41.67;;;27.63;;
59512;SDS011;45330;51.634;5.562;2022-10-31T10:35:25;41.63;;;28.20;;
59512;SDS011;45330;51.634;5.562;2022-10-31T10:37:57;38.15;;;26.63;;
59512;SDS011;45330;51.634;5.562;2022-10-31T10:40:27;39.85;;;25.52;;
59512;SDS011;45330;51.634;5.562;2022-10-31T10:51:29;36.50;;;25.50;;
59512;SDS011;45330;51.634;5.562;2022-10-31T10:59:22;44.15;;;26.45;;
59512;SDS011;45330;51.634;5.562;2022-10-31T11:01:51;39.40;;;26.63;;
59512;SDS011;45330;51.634;5.562;2022-10-31T11:04:25;38.17;;;25.60;;
59512;SDS011;45330;51.634;5.562;2022-10-31T11:07:07;40.95;;;25.75;;
59512;SDS011;45330;51.634;5.562;2022-10-31T11:09:35;41.63;;;26.97;;
59512;SDS011;45330;51.634;5.562;2022-10-31T11:12:14;37.90;;;26.35;;
59512;SDS011;45330;51.634;5.562;2022-10-31T11:14:45;40.63;;;27.35;;
59512;SDS011;45330;51.634;5.562;2022-10-31T11:17:24;38.65;;;26.17;;
59512;SDS011;45330;51.634;5.562;2022-10-31T11:22:45;40.33;;;26.10;;
59512;SDS011;45330;51.634;5.562;2022-10-31T11:25:21;39.38;;;25.83;;
59512;SDS011;45330;51.634;5.562;2022-10-31T11:30:57;39.65;;;25.08;;
59512;SDS011;45330;51.634;5.562;2022-10-31T11:36:24;35.92;;;24.88;;
59512;SDS011;45330;51.634;5.562;2022-10-31T11:38:53;38.97;;;25.85;;
59512;SDS011;45330;51.634;5.562;2022-10-31T11:41:27;37.67;;;25.50;;
59512;SDS011;45330;51.634;5.562;2022-10-31T11:43:57;36.95;;;24.52;;
59512;SDS011;45330;51.634;5.562;2022-10-31T11:49:40;40.50;;;24.98;;
59512;SDS011;45330;51.634;5.562;2022-10-31T11:57:22;34.90;;;23.20;;
59512;SDS011;45330;51.634;5.562;2022-10-31T11:59:55;37.47;;;23.48;;
59512;SDS011;45330;51.634;5.562;2022-10-31T12:02:22;39.60;;;24.33;;
59512;SDS011;45330;51.634;5.562;2022-10-31T12:04:54;35.38;;;24.20;;
59512;SDS011;45330;51.634;5.562;2022-10-31T12:07:31;36.50;;;23.75;;
59512;SDS011;45330;51.634;5.562;2022-10-31T12:09:57;33.97;;;23.73;;
59512;SDS011;45330;51.634;5.562;2022-10-31T12:12:45;34.85;;;23.13;;
59512;SDS011;45330;51.634;5.562;2022-10-31T12:15:34;37.28;;;22.77;;
59512;SDS011;45330;51.634;5.562;2022-10-31T12:20:44;36.53;;;22.63;;
59512;SDS011;45330;51.634;5.562;2022-10-31T12:31:32;37.08;;;23.50;;
59512;SDS011;45330;51.634;5.562;2022-10-31T12:34:23;35.67;;;22.90;;
59512;SDS011;45330;51.634;5.562;2022-10-31T12:42:27;34.25;;;20.65;;
59512;SDS011;45330;51.634;5.562;2022-10-31T12:45:24;35.13;;;20.80;;
59512;SDS011;45330;51.634;5.562;2022-10-31T12:54:32;32.70;;;17.52;;
59512;SDS011;45330;51.634;5.562;2022-10-31T12:59:15;30.52;;;17.33;;
59512;SDS011;45330;51.634;5.562;2022-10-31T13:04:21;31.52;;;16.38;;
59512;SDS011;45330;51.634;5.562;2022-10-31T13:07:00;31.10;;;16.33;;
59512;SDS011;45330;51.634;5.562;2022-10-31T13:09:37;30.17;;;16.00;;
59512;SDS011;45330;51.634;5.562;2022-10-31T13:12:10;27.88;;;14.93;;
59512;SDS011;45330;51.634;5.562;2022-10-31T13:14:46;29.73;;;16.08;;
59512;SDS011;45330;51.634;5.562;2022-10-31T13:17:20;27.40;;;14.43;;
59512;SDS011;45330;51.634;5.562;2022-10-31T13:19:51;30.20;;;14.32;;
59512;SDS011;45330;51.634;5.562;2022-10-31T13:22:25;27.65;;;14.25;;
59512;SDS011;45330;51.634;5.562;2022-10-31T13:24:59;28.45;;;13.60;;
59512;SDS011;45330;51.634;5.562;2022-10-31T13:27:38;29.02;;;14.07;;
59512;SDS011;45330;51.634;5.562;2022-10-31T13:35:18;28.13;;;13.55;;
59512;SDS011;45330;51.634;5.562;2022-10-31T13:37:46;25.63;;;12.63;;
59512;SDS011;45330;51.634;5.562;2022-10-31T13:43:23;26.80;;;13.32;;
59512;SDS011;45330;51.634;5.562;2022-10-31T13:46:20;27.30;;;12.85;;
59512;SDS011;45330;51.634;5.562;2022-10-31T13:48:48;26.15;;;13.60;;
59512;SDS011;45330;51.634;5.562;2022-10-31T13:51:13;28.00;;;13.85;;
59512;SDS011;45330;51.634;5.562;2022-10-31T13:56:23;24.45;;;12.57;;
59512;SDS011;45330;51.634;5.562;2022-10-31T14:01:35;25.73;;;11.93;;
59512;SDS011;45330;51.634;5.562;2022-10-31T14:04:03;28.13;;;13.65;;
59512;SDS011;45330;51.634;5.562;2022-10-31T14:06:42;27.47;;;13.30;;
59512;SDS011;45330;51.634;5.562;2022-10-31T14:09:20;26.75;;;12.95;;
59512;SDS011;45330;51.634;5.562;2022-10-31T14:11:49;24.35;;;12.43;;
59512;SDS011;45330;51.634;5.562;2022-10-31T14:14:15;27.17;;;12.80;;
59512;SDS011;45330;51.634;5.562;2022-10-31T14:16:44;28.20;;;12.93;;
59512;SDS011;45330;51.634;5.562;2022-10-31T14:19:14;26.67;;;12.30;;
59512;SDS011;45330;51.634;5.562;2022-10-31T14:21:44;26.77;;;13.05;;
59512;SDS011;45330;51.634;5.562;2022-10-31T14:26:55;31.63;;;14.45;;
59512;SDS011;45330;51.634;5.562;2022-10-31T14:29:24;28.95;;;14.38;;
59512;SDS011;45330;51.634;5.562;2022-10-31T14:34:22;27.70;;;14.38;;
59512;SDS011;45330;51.634;5.562;2022-10-31T14:39:34;30.07;;;14.30;;
59512;SDS011;45330;51.634;5.562;2022-10-31T14:50:51;28.77;;;13.80;;
59512;SDS011;45330;51.634;5.562;2022-10-31T14:53:19;26.88;;;13.57;;
59512;SDS011;45330;51.634;5.562;2022-10-31T14:55:49;26.23;;;13.55;;
59512;SDS011;45330;51.634;5.562;2022-10-31T14:58:22;26.55;;;13.43;;
59512;SDS011;45330;51.634;5.562;2022-10-31T15:00:55;24.52;;;12.80;;
59512;SDS011;45330;51.634;5.562;2022-10-31T15:05:55;27.33;;;12.95;;
59512;SDS011;45330;51.634;5.562;2022-10-31T15:08:30;32.00;;;13.32;;
59512;SDS011;45330;51.634;5.562;2022-10-31T15:10:58;30.10;;;13.60;;
59512;SDS011;45330;51.634;5.562;2022-10-31T15:13:23;27.92;;;13.00;;
59512;SDS011;45330;51.634;5.562;2022-10-31T15:15:52;27.88;;;13.50;;
59512;SDS011;45330;51.634;5.562;2022-10-31T15:18:22;27.45;;;13.88;;
59512;SDS011;45330;51.634;5.562;2022-10-31T15:20:50;28.92;;;13.32;;
59512;SDS011;45330;51.634;5.562;2022-10-31T15:23:28;26.60;;;13.50;;
59512;SDS011;45330;51.634;5.562;2022-10-31T15:26:00;27.13;;;13.68;;
59512;SDS011;45330;51.634;5.562;2022-10-31T15:28:28;31.98;;;14.13;;
59512;SDS011;45330;51.634;5.562;2022-10-31T15:30:54;28.58;;;14.75;;
59512;SDS011;45330;51.634;5.562;2022-10-31T15:33:23;27.70;;;13.52;;
59512;SDS011;45330;51.634;5.562;2022-10-31T15:36:00;27.20;;;14.98;;
59512;SDS011;45330;51.634;5.562;2022-10-31T15:38:27;28.80;;;14.98;;
59512;SDS011;45330;51.634;5.562;2022-10-31T15:40:58;27.48;;;14.82;;
59512;SDS011;45330;51.634;5.562;2022-10-31T15:43:34;29.45;;;15.13;;
59512;SDS011;45330;51.634;5.562;2022-10-31T15:46:03;29.00;;;14.55;;
59512;SDS011;45330;51.634;5.562;2022-10-31T15:48:32;29.67;;;15.35;;
59512;SDS011;45330;51.634;5.562;2022-10-31T15:50:59;30.05;;;15.35;;
59512;SDS011;45330;51.634;5.562;2022-10-31T15:53:28;31.38;;;15.10;;
59512;SDS011;45330;51.634;5.562;2022-10-31T15:56:02;32.78;;;16.25;;
59512;SDS011;45330;51.634;5.562;2022-10-31T15:58:31;29.73;;;15.23;;
59512;SDS011;45330;51.634;5.562;2022-10-31T16:03:29;30.52;;;16.15;;
59512;SDS011;45330;51.634;5.562;2022-10-31T16:05:57;29.30;;;15.15;;
59512;SDS011;45330;51.634;5.562;2022-10-31T16:08:25;31.83;;;16.25;;
59512;SDS011;45330;51.634;5.562;2022-10-31T16:13:53;32.17;;;16.92;;
59512;SDS011;45330;51.634;5.562;2022-10-31T16:16:19;33.97;;;16.73;;
59512;SDS011;45330;51.634;5.562;2022-10-31T16:18:48;33.15;;;16.75;;
59512;SDS011;45330;51.634;5.562;2022-10-31T16:21:16;34.28;;;17.40;;
59512;SDS011;45330;51.634;5.562;2022-10-31T16:23:50;34.28;;;18.17;;
59512;SDS011;45330;51.634;5.562;2022-10-31T16:26:20;32.65;;;17.60;;
59512;SDS011;45330;51.634;5.562;2022-10-31T16:28:56;32.70;;;16.63;;
59512;SDS011;45330;51.634;5.562;2022-10-31T16:31:30;28.55;;;16.27;;
59512;SDS011;45330;51.634;5.562;2022-10-31T16:34:02;30.90;;;15.65;;
59512;SDS011;45330;51.634;5.562;2022-10-31T16:36:31;32.17;;;16.48;;
59512;SDS011;45330;51.634;5.562;2022-10-31T16:38:58;31.65;;;16.20;;
59512;SDS011;45330;51.634;5.562;2022-10-31T16:41:23;30.67;;;15.20;;
59512;SDS011;45330;51.634;5.562;2022-10-31T16:43:50;29.80;;;15.30;;
59512;SDS011;45330;51.634;5.562;2022-10-31T16:46:18;28.80;;;14.98;;
59512;SDS011;45330;51.634;5.562;2022-10-31T16:48:48;28.80;;;14.25;;
59512;SDS011;45330;51.634;5.562;2022-10-31T16:51:13;29.95;;;13.73;;
59512;SDS011;45330;51.634;5.562;2022-10-31T16:53:38;28.80;;;13.05;;
59512;SDS011;45330;51.634;5.562;2022-10-31T16:56:04;27.13;;;13.13;;
59512;SDS011;45330;51.634;5.562;2022-10-31T16:58:33;27.95;;;13.20;;
59512;SDS011;45330;51.634;5.562;2022-10-31T17:01:01;29.10;;;12.35;;